sensor_id;sensor_type;location;lat;lon;timestamp;pressure;altitude;pressure_sealevel;temperature;humidity
26487;BME280;14425;56.136;40.360;2022-07-11T00:02:05;99333.13;;;22.65;70.95
26487;BME280;14425;56.136;40.360;2022-07-11T00:04:32;99326.34;;;22.53;72.26
26487;BME280;14425;56.136;40.360;2022-07-11T00:06:59;99317.34;;;22.65;70.46
26487;BME280;14425;56.136;40.360;2022-07-11T00:09:25;99317.34;;;22.65;71.10
26487;BME280;14425;56.136;40.360;2022-07-11T00:11:54;99322.66;;;22.62;70.99
26487;BME280;14425;56.136;40.360;2022-07-11T00:14:20;99322.66;;;22.62;71.06
26487;BME280;14425;56.136;40.360;2022-07-11T00:16:47;99320.06;;;22.60;70.88
26487;BME280;14425;56.136;40.360;2022-07-11T00:19:13;99322.00;;;21.96;74.46
26487;BME280;14425;56.136;40.360;2022-07-11T00:21:39;99311.16;;;22.18;73.90
26487;BME280;14425;56.136;40.360;2022-07-11T00:24:06;99303.78;;;22.41;71.74
26487;BME280;14425;56.136;40.360;2022-07-11T00:26:35;99299.72;;;22.70;69.65
26487;BME280;14425;56.136;40.360;2022-07-11T00:29:01;99304.03;;;22.73;68.08
26487;BME280;14425;56.136;40.360;2022-07-11T00:31:27;99303.22;;;22.70;67.65
26487;BME280;14425;56.136;40.360;2022-07-11T00:33:54;99299.63;;;22.76;66.89
26487;BME280;14425;56.136;40.360;2022-07-11T00:36:20;99298.81;;;22.71;66.25
26487;BME280;14425;56.136;40.360;2022-07-11T00:38:46;99304.16;;;22.68;65.48
26487;BME280;14425;56.136;40.360;2022-07-11T00:41:12;99307.63;;;22.70;64.38
26487;BME280;14425;56.136;40.360;2022-07-11T00:43:39;99300.63;;;22.19;66.19
26487;BME280;14425;56.136;40.360;2022-07-11T00:46:07;99306.25;;;21.98;66.59
26487;BME280;14425;56.136;40.360;2022-07-11T00:48:33;99312.41;;;21.96;66.72
26487;BME280;14425;56.136;40.360;2022-07-11T00:51:04;99308.66;;;21.55;68.47
26487;BME280;14425;56.136;40.360;2022-07-11T00:53:31;99312.44;;;21.33;68.98
26487;BME280;14425;56.136;40.360;2022-07-11T00:55:58;99302.78;;;21.35;68.73
26487;BME280;14425;56.136;40.360;2022-07-11T00:58:25;99306.78;;;21.65;67.64
26487;BME280;14425;56.136;40.360;2022-07-11T01:01:10;99307.72;;;21.58;66.49
26487;BME280;14425;56.136;40.360;2022-07-11T01:03:36;99315.22;;;21.83;65.78
26487;BME280;14425;56.136;40.360;2022-07-11T01:06:06;99319.66;;;21.79;65.26
26487;BME280;14425;56.136;40.360;2022-07-11T01:08:38;99315.59;;;22.14;63.90
26487;BME280;14425;56.136;40.360;2022-07-11T01:11:05;99317.81;;;22.40;62.08
26487;BME280;14425;56.136;40.360;2022-07-11T01:13:34;99330.69;;;22.52;60.85
26487;BME280;14425;56.136;40.360;2022-07-11T01:16:32;99330.59;;;22.07;62.65
26487;BME280;14425;56.136;40.360;2022-07-11T01:18:58;99332.63;;;21.90;64.07
26487;BME280;14425;56.136;40.360;2022-07-11T01:21:38;99325.69;;;22.40;61.58
26487;BME280;14425;56.136;40.360;2022-07-11T01:24:08;99329.94;;;22.47;60.55
26487;BME280;14425;56.136;40.360;2022-07-11T01:26:34;99325.06;;;22.23;62.02
26487;BME280;14425;56.136;40.360;2022-07-11T01:29:10;99323.09;;;22.37;61.77
26487;BME280;14425;56.136;40.360;2022-07-11T01:31:41;99324.00;;;22.36;61.39
26487;BME280;14425;56.136;40.360;2022-07-11T01:34:07;99327.25;;;22.50;60.74
26487;BME280;14425;56.136;40.360;2022-07-11T01:36:33;99323.94;;;22.39;60.63
26487;BME280;14425;56.136;40.360;2022-07-11T01:38:59;99327.28;;;22.47;60.66
26487;BME280;14425;56.136;40.360;2022-07-11T01:41:25;99324.63;;;22.50;60.41
26487;BME280;14425;56.136;40.360;2022-07-11T01:43:51;99323.16;;;22.34;60.91
26487;BME280;14425;56.136;40.360;2022-07-11T01:46:18;99327.47;;;22.40;60.05
26487;BME280;14425;56.136;40.360;2022-07-11T01:48:45;99320.75;;;22.20;60.65
26487;BME280;14425;56.136;40.360;2022-07-11T01:51:11;99325.63;;;22.43;60.01
26487;BME280;14425;56.136;40.360;2022-07-11T01:53:37;99320.81;;;22.67;59.43
26487;BME280;14425;56.136;40.360;2022-07-11T01:56:03;99326.41;;;22.48;59.98
26487;BME280;14425;56.136;40.360;2022-07-11T01:58:28;99323.91;;;22.41;60.07
26487;BME280;14425;56.136;40.360;2022-07-11T02:00:58;99328.19;;;21.93;61.04
26487;BME280;14425;56.136;40.360;2022-07-11T02:03:27;99328.47;;;21.76;63.13
26487;BME280;14425;56.136;40.360;2022-07-11T02:05:53;99323.91;;;21.86;62.24
26487;BME280;14425;56.136;40.360;2022-07-11T02:08:18;99325.06;;;21.70;63.11
26487;BME280;14425;56.136;40.360;2022-07-11T02:10:47;99328.00;;;22.04;61.57
26487;BME280;14425;56.136;40.360;2022-07-11T02:13:15;99325.06;;;21.70;62.37
26487;BME280;14425;56.136;40.360;2022-07-11T02:15:42;99331.94;;;21.77;62.26
26487;BME280;14425;56.136;40.360;2022-07-11T02:18:09;99333.81;;;21.70;62.49
26487;BME280;14425;56.136;40.360;2022-07-11T02:20:37;99324.38;;;22.13;61.13
26487;BME280;14425;56.136;40.360;2022-07-11T02:23:03;99334.03;;;22.11;60.68
26487;BME280;14425;56.136;40.360;2022-07-11T02:25:30;99323.91;;;21.88;61.50
26487;BME280;14425;56.136;40.360;2022-07-11T02:27:57;99318.28;;;22.11;60.94
26487;BME280;14425;56.136;40.360;2022-07-11T02:30:23;99329.97;;;22.44;60.08
26487;BME280;14425;56.136;40.360;2022-07-11T02:32:50;99326.38;;;22.51;59.57
26487;BME280;14425;56.136;40.360;2022-07-11T02:35:17;99335.53;;;21.71;62.36
26487;BME280;14425;56.136;40.360;2022-07-11T02:37:42;99336.38;;;21.73;63.19
26487;BME280;14425;56.136;40.360;2022-07-11T02:40:09;99328.31;;;21.86;62.69
26487;BME280;14425;56.136;40.360;2022-07-11T02:42:36;99328.66;;;21.63;64.03
26487;BME280;14425;56.136;40.360;2022-07-11T02:45:03;99332.38;;;22.05;62.32
26487;BME280;14425;56.136;40.360;2022-07-11T02:47:30;99336.34;;;22.28;61.32
26487;BME280;14425;56.136;40.360;2022-07-11T02:49:56;99333.97;;;21.58;63.87
26487;BME280;14425;56.136;40.360;2022-07-11T02:52:22;99331.09;;;21.76;63.68
26487;BME280;14425;56.136;40.360;2022-07-11T02:54:47;99339.91;;;21.71;63.34
26487;BME280;14425;56.136;40.360;2022-07-11T02:57:13;99342.16;;;21.33;66.90
26487;BME280;14425;56.136;40.360;2022-07-11T02:59:39;99342.34;;;21.19;67.03
26487;BME280;14425;56.136;40.360;2022-07-11T03:02:05;99337.31;;;21.69;65.01
26487;BME280;14425;56.136;40.360;2022-07-11T03:04:34;99341.16;;;21.44;65.46
26487;BME280;14425;56.136;40.360;2022-07-11T03:07:00;99353.47;;;21.38;66.97
26487;BME280;14425;56.136;40.360;2022-07-11T03:09:26;99356.19;;;21.29;67.46
26487;BME280;14425;56.136;40.360;2022-07-11T03:11:52;99355.34;;;21.29;68.34
26487;BME280;14425;56.136;40.360;2022-07-11T03:14:18;99352.81;;;21.21;68.59
26487;BME280;14425;56.136;40.360;2022-07-11T03:16:44;99351.94;;;21.22;69.27
26487;BME280;14425;56.136;40.360;2022-07-11T03:19:10;99356.09;;;21.37;68.62
26487;BME280;14425;56.136;40.360;2022-07-11T03:21:36;99359.06;;;21.11;69.69
26487;BME280;14425;56.136;40.360;2022-07-11T03:24:02;99365.03;;;21.23;69.68
26487;BME280;14425;56.136;40.360;2022-07-11T03:26:28;99352.97;;;21.75;67.71
26487;BME280;14425;56.136;40.360;2022-07-11T03:28:54;99363.78;;;21.52;68.72
26487;BME280;14425;56.136;40.360;2022-07-11T03:31:20;99354.59;;;21.83;67.81
26487;BME280;14425;56.136;40.360;2022-07-11T03:33:46;99352.72;;;21.91;67.25
26487;BME280;14425;56.136;40.360;2022-07-11T03:36:12;99355.72;;;21.66;68.26
26487;BME280;14425;56.136;40.360;2022-07-11T03:38:38;99346.50;;;21.34;69.63
26487;BME280;14425;56.136;40.360;2022-07-11T03:41:04;99348.38;;;21.26;71.66
26487;BME280;14425;56.136;40.360;2022-07-11T03:43:30;99354.34;;;21.36;71.22
26487;BME280;14425;56.136;40.360;2022-07-11T03:45:56;99357.91;;;21.33;71.65
26487;BME280;14425;56.136;40.360;2022-07-11T03:48:22;99359.56;;;21.40;71.29
26487;BME280;14425;56.136;40.360;2022-07-11T03:50:49;99349.88;;;21.47;71.44
26487;BME280;14425;56.136;40.360;2022-07-11T03:53:15;99353.06;;;21.68;70.58
26487;BME280;14425;56.136;40.360;2022-07-11T03:55:41;99350.75;;;22.07;68.87
26487;BME280;14425;56.136;40.360;2022-07-11T03:58:06;99354.28;;;22.03;68.59
26487;BME280;14425;56.136;40.360;2022-07-11T04:00:32;99350.03;;;21.95;68.30
26487;BME280;14425;56.136;40.360;2022-07-11T04:02:58;99356.19;;;21.93;68.47
26487;BME280;14425;56.136;40.360;2022-07-11T04:05:26;99350.16;;;21.88;68.36
26487;BME280;14425;56.136;40.360;2022-07-11T04:07:52;99360.59;;;21.92;68.72
26487;BME280;14425;56.136;40.360;2022-07-11T04:10:18;99362.06;;;22.10;67.78
26487;BME280;14425;56.136;40.360;2022-07-11T04:12:44;99366.63;;;22.52;66.24
26487;BME280;14425;56.136;40.360;2022-07-11T04:15:10;99355.78;;;22.70;65.67
26487;BME280;14425;56.136;40.360;2022-07-11T04:17:37;99363.47;;;22.81;64.24
26487;BME280;14425;56.136;40.360;2022-07-11T04:20:04;99361.59;;;22.88;63.89
26487;BME280;14425;56.136;40.360;2022-07-11T04:22:30;99353.03;;;22.77;64.04
26487;BME280;14425;56.136;40.360;2022-07-11T04:24:56;99359.53;;;23.02;63.70
26487;BME280;14425;56.136;40.360;2022-07-11T04:27:22;99362.81;;;22.70;64.43
26487;BME280;14425;56.136;40.360;2022-07-11T04:29:49;99365.41;;;22.72;65.22
26487;BME280;14425;56.136;40.360;2022-07-11T04:32:15;99365.34;;;22.75;64.60
26487;BME280;14425;56.136;40.360;2022-07-11T04:34:41;99368.34;;;23.01;64.74
26487;BME280;14425;56.136;40.360;2022-07-11T04:37:07;99366.44;;;23.11;64.00
26487;BME280;14425;56.136;40.360;2022-07-11T04:39:33;99364.69;;;23.10;63.74
26487;BME280;14425;56.136;40.360;2022-07-11T04:41:59;99357.38;;;23.24;63.87
26487;BME280;14425;56.136;40.360;2022-07-11T04:44:29;99353.66;;;23.74;61.43
26487;BME280;14425;56.136;40.360;2022-07-11T04:46:55;99360.69;;;23.73;61.18
26487;BME280;14425;56.136;40.360;2022-07-11T04:49:21;99348.81;;;23.55;61.74
26487;BME280;14425;56.136;40.360;2022-07-11T04:51:47;99361.72;;;23.68;61.94
26487;BME280;14425;56.136;40.360;2022-07-11T04:54:13;99358.94;;;23.33;61.67
26487;BME280;14425;56.136;40.360;2022-07-11T04:56:38;99360.88;;;23.25;62.79
26487;BME280;14425;56.136;40.360;2022-07-11T04:59:04;99354.50;;;23.35;62.09
26487;BME280;14425;56.136;40.360;2022-07-11T05:01:30;99354.00;;;23.19;63.04
26487;BME280;14425;56.136;40.360;2022-07-11T05:03:56;99357.72;;;23.50;62.25
26487;BME280;14425;56.136;40.360;2022-07-11T05:06:22;99350.44;;;23.63;61.07
26487;BME280;14425;56.136;40.360;2022-07-11T05:08:48;99347.75;;;23.64;60.83
26487;BME280;14425;56.136;40.360;2022-07-11T05:11:13;99352.50;;;23.87;60.03
26487;BME280;14425;56.136;40.360;2022-07-11T05:13:40;99344.94;;;24.11;59.68
26487;BME280;14425;56.136;40.360;2022-07-11T05:16:06;99345.34;;;24.28;59.70
26487;BME280;14425;56.136;40.360;2022-07-11T05:18:32;99340.00;;;24.31;59.15
26487;BME280;14425;56.136;40.360;2022-07-11T05:20:58;99339.34;;;24.58;59.07
26487;BME280;14425;56.136;40.360;2022-07-11T05:23:24;99336.28;;;24.73;59.48
26487;BME280;14425;56.136;40.360;2022-07-11T05:25:50;99341.22;;;24.87;58.13
26487;BME280;14425;56.136;40.360;2022-07-11T05:28:16;99338.41;;;24.92;57.71
26487;BME280;14425;56.136;40.360;2022-07-11T05:30:41;99335.25;;;25.10;58.16
26487;BME280;14425;56.136;40.360;2022-07-11T05:33:07;99338.22;;;25.31;56.79
26487;BME280;14425;56.136;40.360;2022-07-11T05:35:33;99338.56;;;25.48;56.47
26487;BME280;14425;56.136;40.360;2022-07-11T05:37:59;99344.22;;;25.64;55.77
26487;BME280;14425;56.136;40.360;2022-07-11T05:40:25;99336.31;;;25.64;55.63
26487;BME280;14425;56.136;40.360;2022-07-11T05:42:50;99340.06;;;25.57;54.39
26487;BME280;14425;56.136;40.360;2022-07-11T05:45:16;99337.97;;;25.38;54.07
26487;BME280;14425;56.136;40.360;2022-07-11T05:47:42;99348.13;;;25.52;54.21
26487;BME280;14425;56.136;40.360;2022-07-11T05:50:09;99335.25;;;25.98;53.68
26487;BME280;14425;56.136;40.360;2022-07-11T05:52:35;99334.50;;;25.93;53.12
26487;BME280;14425;56.136;40.360;2022-07-11T05:55:00;99337.03;;;25.97;52.61
26487;BME280;14425;56.136;40.360;2022-07-11T05:57:26;99326.78;;;26.15;52.18
26487;BME280;14425;56.136;40.360;2022-07-11T05:59:53;99326.50;;;26.48;51.96
26487;BME280;14425;56.136;40.360;2022-07-11T06:02:18;99322.47;;;26.37;51.36
26487;BME280;14425;56.136;40.360;2022-07-11T06:04:44;99324.81;;;26.47;50.67
26487;BME280;14425;56.136;40.360;2022-07-11T06:07:11;99325.31;;;26.58;50.94
26487;BME280;14425;56.136;40.360;2022-07-11T06:09:37;99331.38;;;26.60;50.39
26487;BME280;14425;56.136;40.360;2022-07-11T06:12:06;99324.81;;;26.72;49.51
26487;BME280;14425;56.136;40.360;2022-07-11T06:14:32;99323.13;;;26.95;49.18
26487;BME280;14425;56.136;40.360;2022-07-11T06:16:58;99325.09;;;27.37;47.78
26487;BME280;14425;56.136;40.360;2022-07-11T06:19:24;99326.56;;;27.44;48.01
26487;BME280;14425;56.136;40.360;2022-07-11T06:21:50;99332.63;;;27.70;47.56
26487;BME280;14425;56.136;40.360;2022-07-11T06:24:15;99323.09;;;28.30;46.76
26487;BME280;14425;56.136;40.360;2022-07-11T06:26:41;99328.34;;;28.73;46.14
26487;BME280;14425;56.136;40.360;2022-07-11T06:29:07;99324.13;;;28.69;46.29
26487;BME280;14425;56.136;40.360;2022-07-11T06:31:33;99317.28;;;29.03;44.30
26487;BME280;14425;56.136;40.360;2022-07-11T06:33:59;99326.03;;;28.65;44.47
26487;BME280;14425;56.136;40.360;2022-07-11T06:36:25;99321.19;;;28.54;44.21
26487;BME280;14425;56.136;40.360;2022-07-11T06:38:51;99311.03;;;28.85;43.78
26487;BME280;14425;56.136;40.360;2022-07-11T06:41:17;99324.28;;;28.85;43.29
26487;BME280;14425;56.136;40.360;2022-07-11T06:43:43;99313.31;;;29.32;43.41
26487;BME280;14425;56.136;40.360;2022-07-11T06:46:09;99316.63;;;29.37;42.26
26487;BME280;14425;56.136;40.360;2022-07-11T06:48:35;99322.16;;;29.69;42.16
26487;BME280;14425;56.136;40.360;2022-07-11T06:51:01;99321.47;;;29.46;42.03
26487;BME280;14425;56.136;40.360;2022-07-11T06:53:27;99315.81;;;29.54;41.26
26487;BME280;14425;56.136;40.360;2022-07-11T06:55:53;99313.06;;;29.37;41.33
26487;BME280;14425;56.136;40.360;2022-07-11T06:58:19;99317.22;;;29.04;42.46
26487;BME280;14425;56.136;40.360;2022-07-11T07:01:01;99311.88;;;29.25;41.78
26487;BME280;14425;56.136;40.360;2022-07-11T07:03:28;99316.16;;;29.46;40.84
26487;BME280;14425;56.136;40.360;2022-07-11T07:05:56;99305.97;;;29.93;40.56
26487;BME280;14425;56.136;40.360;2022-07-11T07:08:24;99305.91;;;29.94;39.74
26487;BME280;14425;56.136;40.360;2022-07-11T07:10:50;99298.03;;;30.10;38.94
26487;BME280;14425;56.136;40.360;2022-07-11T07:13:17;99308.22;;;29.83;38.98
26487;BME280;14425;56.136;40.360;2022-07-11T07:15:42;99298.72;;;30.14;38.31
26487;BME280;14425;56.136;40.360;2022-07-11T07:18:09;99310.84;;;29.46;39.13
26487;BME280;14425;56.136;40.360;2022-07-11T07:20:35;99299.81;;;29.73;38.70
26487;BME280;14425;56.136;40.360;2022-07-11T07:23:01;99303.00;;;30.69;38.21
26487;BME280;14425;56.136;40.360;2022-07-11T07:25:27;99294.19;;;30.84;37.64
26487;BME280;14425;56.136;40.360;2022-07-11T07:27:53;99299.94;;;30.92;37.65
26487;BME280;14425;56.136;40.360;2022-07-11T07:30:19;99311.97;;;30.84;37.44
26487;BME280;14425;56.136;40.360;2022-07-11T07:32:44;99299.94;;;30.92;37.33
26487;BME280;14425;56.136;40.360;2022-07-11T07:35:10;99300.19;;;31.05;36.86
26487;BME280;14425;56.136;40.360;2022-07-11T07:37:36;99293.56;;;30.79;36.64
26487;BME280;14425;56.136;40.360;2022-07-11T07:40:02;99300.44;;;30.50;36.68
26487;BME280;14425;56.136;40.360;2022-07-11T07:42:28;99296.41;;;31.25;35.57
26487;BME280;14425;56.136;40.360;2022-07-11T07:44:54;99287.41;;;31.60;35.47
26487;BME280;14425;56.136;40.360;2022-07-11T07:47:20;99306.38;;;31.38;35.68
26487;BME280;14425;56.136;40.360;2022-07-11T07:49:46;99292.75;;;31.60;35.13
26487;BME280;14425;56.136;40.360;2022-07-11T07:52:15;99286.19;;;31.49;35.27
26487;BME280;14425;56.136;40.360;2022-07-11T07:54:41;99288.63;;;32.00;35.06
26487;BME280;14425;56.136;40.360;2022-07-11T07:57:07;99294.84;;;31.85;34.57
26487;BME280;14425;56.136;40.360;2022-07-11T07:59:32;99289.34;;;31.88;33.92
26487;BME280;14425;56.136;40.360;2022-07-11T08:01:58;99291.97;;;32.34;33.63
26487;BME280;14425;56.136;40.360;2022-07-11T08:04:24;99287.75;;;31.70;34.18
26487;BME280;14425;56.136;40.360;2022-07-11T08:06:50;99282.84;;;31.78;34.12
26487;BME280;14425;56.136;40.360;2022-07-11T08:09:16;99265.59;;;31.99;33.28
26487;BME280;14425;56.136;40.360;2022-07-11T08:11:42;99285.69;;;32.35;33.19
26487;BME280;14425;56.136;40.360;2022-07-11T08:14:08;99285.72;;;31.89;32.37
26487;BME280;14425;56.136;40.360;2022-07-11T08:16:34;99278.34;;;32.39;32.11
26487;BME280;14425;56.136;40.360;2022-07-11T08:19:02;99277.84;;;32.02;32.12
26487;BME280;14425;56.136;40.360;2022-07-11T08:21:29;99286.59;;;32.65;31.92
26487;BME280;14425;56.136;40.360;2022-07-11T08:23:56;99286.31;;;32.98;31.44
26487;BME280;14425;56.136;40.360;2022-07-11T08:26:22;99268.97;;;32.91;30.57
26487;BME280;14425;56.136;40.360;2022-07-11T08:28:48;99284.13;;;33.19;30.27
26487;BME280;14425;56.136;40.360;2022-07-11T08:31:14;99264.69;;;33.44;30.15
26487;BME280;14425;56.136;40.360;2022-07-11T08:33:39;99280.69;;;32.88;30.74
26487;BME280;14425;56.136;40.360;2022-07-11T08:36:06;99269.34;;;32.70;31.01
26487;BME280;14425;56.136;40.360;2022-07-11T08:38:34;99274.78;;;32.97;31.13
26487;BME280;14425;56.136;40.360;2022-07-11T08:41:00;99274.22;;;32.92;31.28
26487;BME280;14425;56.136;40.360;2022-07-11T08:43:28;99268.22;;;32.74;30.53
26487;BME280;14425;56.136;40.360;2022-07-11T08:45:55;99285.06;;;32.75;30.58
26487;BME280;14425;56.136;40.360;2022-07-11T08:48:22;99291.28;;;32.90;30.16
26487;BME280;14425;56.136;40.360;2022-07-11T08:50:51;99268.00;;;33.48;29.78
26487;BME280;14425;56.136;40.360;2022-07-11T08:53:17;99278.38;;;33.11;30.07
26487;BME280;14425;56.136;40.360;2022-07-11T08:55:43;99270.47;;;33.78;29.76
26487;BME280;14425;56.136;40.360;2022-07-11T08:58:09;99284.28;;;33.85;29.31
26487;BME280;14425;56.136;40.360;2022-07-11T09:00:36;99271.47;;;33.77;29.29
26487;BME280;14425;56.136;40.360;2022-07-11T09:03:03;99274.84;;;34.19;29.68
26487;BME280;14425;56.136;40.360;2022-07-11T09:05:32;99267.84;;;33.64;29.45
26487;BME280;14425;56.136;40.360;2022-07-11T09:07:58;99274.06;;;33.08;30.20
26487;BME280;14425;56.136;40.360;2022-07-11T09:10:24;99272.75;;;33.01;30.26
26487;BME280;14425;56.136;40.360;2022-07-11T09:13:00;99271.13;;;32.99;30.10
26487;BME280;14425;56.136;40.360;2022-07-11T09:15:43;99267.63;;;32.84;30.43
26487;BME280;14425;56.136;40.360;2022-07-11T09:20:53;99259.72;;;33.38;29.80
26487;BME280;14425;56.136;40.360;2022-07-11T09:23:41;99262.50;;;33.37;29.92
26487;BME280;14425;56.136;40.360;2022-07-11T09:26:48;99255.63;;;34.53;29.59
26487;BME280;14425;56.136;40.360;2022-07-11T09:31:43;99254.50;;;34.04;28.94
26487;BME280;14425;56.136;40.360;2022-07-11T09:34:18;99258.53;;;33.97;28.95
26487;BME280;14425;56.136;40.360;2022-07-11T09:36:51;99267.81;;;33.78;28.94
26487;BME280;14425;56.136;40.360;2022-07-11T09:39:21;99245.53;;;34.18;28.29
26487;BME280;14425;56.136;40.360;2022-07-11T09:41:49;99251.06;;;34.15;28.87
26487;BME280;14425;56.136;40.360;2022-07-11T09:44:24;99263.06;;;34.09;28.66
26487;BME280;14425;56.136;40.360;2022-07-11T09:46:53;99249.81;;;34.85;28.43
26487;BME280;14425;56.136;40.360;2022-07-11T09:49:49;99246.50;;;34.68;28.01
26487;BME280;14425;56.136;40.360;2022-07-11T09:52:16;99243.19;;;34.90;28.17
26487;BME280;14425;56.136;40.360;2022-07-11T09:54:56;99246.25;;;35.10;28.31
26487;BME280;14425;56.136;40.360;2022-07-11T09:57:38;99237.97;;;35.13;28.66
26487;BME280;14425;56.136;40.360;2022-07-11T10:00:10;99239.41;;;36.14;27.98
26487;BME280;14425;56.136;40.360;2022-07-11T10:02:38;99233.88;;;35.20;27.81
26487;BME280;14425;56.136;40.360;2022-07-11T10:05:04;99240.69;;;35.37;27.77
26487;BME280;14425;56.136;40.360;2022-07-11T10:07:31;99234.94;;;35.30;28.10
26487;BME280;14425;56.136;40.360;2022-07-11T10:10:02;99241.50;;;35.13;28.29
26487;BME280;14425;56.136;40.360;2022-07-11T10:12:31;99240.59;;;34.63;28.96
26487;BME280;14425;56.136;40.360;2022-07-11T10:15:02;99242.03;;;34.30;29.15
26487;BME280;14425;56.136;40.360;2022-07-11T10:20:32;99249.00;;;34.58;28.37
26487;BME280;14425;56.136;40.360;2022-07-11T10:23:31;99241.69;;;34.60;27.85
26487;BME280;14425;56.136;40.360;2022-07-11T10:26:27;99231.84;;;34.48;28.41
26487;BME280;14425;56.136;40.360;2022-07-11T10:29:01;99236.31;;;34.09;29.12
26487;BME280;14425;56.136;40.360;2022-07-11T10:31:30;99228.00;;;34.27;28.98
26487;BME280;14425;56.136;40.360;2022-07-11T10:36:30;99248.34;;;33.76;28.31
26487;BME280;14425;56.136;40.360;2022-07-11T10:39:16;99242.63;;;33.68;28.98
26487;BME280;14425;56.136;40.360;2022-07-11T10:41:44;99232.03;;;34.06;29.12
26487;BME280;14425;56.136;40.360;2022-07-11T10:44:11;99226.88;;;33.91;28.56
26487;BME280;14425;56.136;40.360;2022-07-11T10:46:37;99219.53;;;34.33;27.83
26487;BME280;14425;56.136;40.360;2022-07-11T10:57:16;99213.59;;;35.53;26.33
26487;BME280;14425;56.136;40.360;2022-07-11T11:00:00;99216.28;;;35.29;26.91
26487;BME280;14425;56.136;40.360;2022-07-11T11:02:27;99226.28;;;34.77;27.00
26487;BME280;14425;56.136;40.360;2022-07-11T11:05:00;99224.38;;;34.28;27.18
26487;BME280;14425;56.136;40.360;2022-07-11T11:07:36;99220.19;;;34.49;27.21
26487;BME280;14425;56.136;40.360;2022-07-11T11:10:44;99216.03;;;34.32;26.87
26487;BME280;14425;56.136;40.360;2022-07-11T11:23:40;99217.06;;;34.81;26.98
26487;BME280;14425;56.136;40.360;2022-07-11T11:26:12;99211.47;;;33.94;27.49
26487;BME280;14425;56.136;40.360;2022-07-11T11:28:55;99217.94;;;34.43;27.06
26487;BME280;14425;56.136;40.360;2022-07-11T11:31:21;99206.38;;;34.42;27.08
26487;BME280;14425;56.136;40.360;2022-07-11T11:33:48;99214.25;;;34.95;26.45
26487;BME280;14425;56.136;40.360;2022-07-11T11:36:27;99202.97;;;34.40;26.71
26487;BME280;14425;56.136;40.360;2022-07-11T11:38:54;99198.66;;;34.64;26.99
26487;BME280;14425;56.136;40.360;2022-07-11T11:41:31;99205.72;;;34.77;26.48
26487;BME280;14425;56.136;40.360;2022-07-11T11:43:59;99204.25;;;34.97;26.48
26487;BME280;14425;56.136;40.360;2022-07-11T11:46:30;99198.75;;;35.12;26.06
26487;BME280;14425;56.136;40.360;2022-07-11T11:49:01;99189.47;;;34.29;26.65
26487;BME280;14425;56.136;40.360;2022-07-11T11:51:30;99198.13;;;34.58;26.22
26487;BME280;14425;56.136;40.360;2022-07-11T11:54:01;99183.38;;;34.27;26.84
26487;BME280;14425;56.136;40.360;2022-07-11T11:56:33;99185.25;;;34.76;26.53
26487;BME280;14425;56.136;40.360;2022-07-11T11:59:07;99176.19;;;35.27;26.16
26487;BME280;14425;56.136;40.360;2022-07-11T12:01:38;99190.41;;;34.41;27.11
26487;BME280;14425;56.136;40.360;2022-07-11T12:04:09;99183.84;;;34.58;26.62
26487;BME280;14425;56.136;40.360;2022-07-11T12:06:38;99181.66;;;34.39;26.38
26487;BME280;14425;56.136;40.360;2022-07-11T12:09:12;99184.94;;;34.55;26.33
26487;BME280;14425;56.136;40.360;2022-07-11T12:11:40;99190.09;;;34.33;26.85
26487;BME280;14425;56.136;40.360;2022-07-11T12:14:08;99190.06;;;34.20;27.04
26487;BME280;14425;56.136;40.360;2022-07-11T12:16:39;99180.22;;;34.72;26.40
26487;BME280;14425;56.136;40.360;2022-07-11T12:21:49;99173.13;;;35.45;25.67
26487;BME280;14425;56.136;40.360;2022-07-11T12:24:27;99177.13;;;34.65;26.52
26487;BME280;14425;56.136;40.360;2022-07-11T12:27:20;99180.13;;;34.60;26.95
26487;BME280;14425;56.136;40.360;2022-07-11T12:29:49;99172.19;;;35.09;27.04
26487;BME280;14425;56.136;40.360;2022-07-11T12:32:27;99170.72;;;35.53;26.66
26487;BME280;14425;56.136;40.360;2022-07-11T12:34:53;99198.00;;;34.60;26.55
26487;BME280;14425;56.136;40.360;2022-07-11T12:37:37;99185.53;;;34.85;26.56
26487;BME280;14425;56.136;40.360;2022-07-11T12:40:06;99184.00;;;35.66;25.78
26487;BME280;14425;56.136;40.360;2022-07-11T12:42:34;99179.66;;;34.79;25.95
26487;BME280;14425;56.136;40.360;2022-07-11T12:45:10;99181.22;;;34.45;26.44
26487;BME280;14425;56.136;40.360;2022-07-11T12:47:42;99179.59;;;34.55;26.29
26487;BME280;14425;56.136;40.360;2022-07-11T12:52:45;99170.56;;;34.82;25.79
26487;BME280;14425;56.136;40.360;2022-07-11T12:55:30;99169.69;;;35.43;26.11
26487;BME280;14425;56.136;40.360;2022-07-11T13:00:42;99176.44;;;35.11;26.04
26487;BME280;14425;56.136;40.360;2022-07-11T13:03:10;99180.44;;;34.56;26.34
26487;BME280;14425;56.136;40.360;2022-07-11T13:05:47;99160.03;;;34.92;26.39
26487;BME280;14425;56.136;40.360;2022-07-11T13:08:28;99168.44;;;34.74;26.01
26487;BME280;14425;56.136;40.360;2022-07-11T13:11:17;99170.63;;;34.93;26.14
26487;BME280;14425;56.136;40.360;2022-07-11T13:13:48;99176.88;;;34.81;26.54
26487;BME280;14425;56.136;40.360;2022-07-11T13:16:16;99172.31;;;34.57;26.87
26487;BME280;14425;56.136;40.360;2022-07-11T13:18:45;99169.31;;;34.49;26.93
26487;BME280;14425;56.136;40.360;2022-07-11T13:21:15;99173.63;;;34.26;26.83
26487;BME280;14425;56.136;40.360;2022-07-11T13:23:42;99186.75;;;33.91;26.40
26487;BME280;14425;56.136;40.360;2022-07-11T13:26:11;99174.13;;;34.18;26.45
26487;BME280;14425;56.136;40.360;2022-07-11T13:28:38;99170.28;;;34.48;26.99
26487;BME280;14425;56.136;40.360;2022-07-11T13:31:04;99163.88;;;33.99;26.86
26487;BME280;14425;56.136;40.360;2022-07-11T13:33:34;99164.84;;;34.37;26.63
26487;BME280;14425;56.136;40.360;2022-07-11T13:36:01;99162.25;;;34.10;26.71